Time;durP1;ratioP1;P1;durP2;ratioP2;P2;SDS_P1;SDS_P2;PMS_P1;PMS_P2;Temp;Humidity;BMP_temperature;BMP_pressure;BME280_temperature;BME280_humidity;BME280_pressure;Samples;Min_cycle;Max_cycle;Signal;HPM_P1;HPM_P2
2022/05/09 00:00:20;;;;;;;1.05;0.90;;;22.10;37.30;;;26.03;24.32;102605.06;5093284;28;20078;-16
2022/05/09 00:02:48;;;;;;;1.15;1.00;;;22.10;37.20;;;26.04;24.30;102617.47;5074915;28;20051;-16
2022/05/09 00:05:17;;;;;;;1.67;1.00;;;22.10;37.30;;;26.02;24.22;102614.03;5093074;28;20048;-16
2022/05/09 00:07:44;;;;;;;1.08;0.80;;;22.10;37.30;;;26.05;24.34;102620.06;5092783;28;20483;-16
2022/05/09 00:10:14;;;;;;;0.70;0.70;;;22.10;37.30;;;26.06;24.23;102627.19;5092589;28;20396;-16
2022/05/09 00:12:39;;;;;;;0.80;0.60;;;22.10;37.20;;;26.05;24.26;102624.59;5092655;28;20199;-16
2022/05/09 00:15:07;;;;;;;0.88;0.80;;;22.10;37.30;;;26.05;24.30;102622.75;5092498;28;20126;-16
2022/05/09 00:17:33;;;;;;;1.33;1.23;;;22.10;37.30;;;25.98;24.18;102615.16;5095232;28;20059;-16
2022/05/09 00:19:59;;;;;;;0.80;0.80;;;22.10;37.30;;;26.05;24.23;102624.59;5096282;28;20052;-16
2022/05/09 00:22:25;;;;;;;0.80;0.75;;;22.10;37.80;;;26.02;24.34;102622.06;5096227;28;20184;-16
2022/05/09 00:24:51;;;;;;;1.00;0.90;;;22.10;37.30;;;25.97;24.24;102618.78;5096586;28;20067;-16
2022/05/09 00:27:17;;;;;;;1.45;0.95;;;22.10;37.30;;;25.98;24.32;102618.69;5096128;28;20075;-16
2022/05/09 00:29:43;;;;;;;0.70;0.70;;;22.10;37.40;;;26.01;24.26;102625.69;5096070;28;20044;-16
2022/05/09 00:32:10;;;;;;;1.13;0.75;;;22.10;37.40;;;25.95;24.33;102618.88;5096583;28;20048;-16
2022/05/09 00:34:37;;;;;;;1.23;0.98;;;22.10;37.40;;;25.95;24.33;102612.63;5095851;28;20492;-16
2022/05/09 00:37:04;;;;;;;1.08;0.70;;;22.10;37.40;;;25.99;24.17;102625.78;5096464;28;20055;-16
2022/05/09 00:39:33;;;;;;;1.02;0.90;;;22.10;37.50;;;25.98;24.23;102613.34;5058922;28;20102;-16
2022/05/09 00:42:13;;;;;;;0.85;0.75;;;22.10;37.50;;;25.97;24.16;102619.63;5078188;28;20044;-16
2022/05/09 00:44:40;;;;;;;0.75;0.75;;;22.10;37.40;;;25.93;24.32;102611.81;5095871;28;20040;-16
2022/05/09 00:47:06;;;;;;;1.02;0.77;;;22.10;37.50;;;25.92;24.30;102613.63;5095824;28;20059;-16
2022/05/09 00:49:45;;;;;;;0.70;0.70;;;22.10;37.50;;;25.88;24.36;102615.63;5095603;28;20056;-16
2022/05/09 00:52:25;;;;;;;2.15;1.00;;;22.00;37.40;;;25.91;24.37;102617.28;5077293;28;20048;-16
2022/05/09 00:55:35;;;;;;;1.00;0.88;;;22.10;37.50;;;25.94;24.35;102626.97;5096255;28;20087;-16
2022/05/09 00:58:12;;;;;;;1.13;0.67;;;22.00;37.50;;;25.90;24.31;102626.28;5095362;28;20056;-16
2022/05/09 01:00:41;;;;;;;0.80;0.80;;;22.00;37.40;;;25.92;24.36;102628.88;5095534;28;20048;-16
2022/05/09 01:03:16;;;;;;;0.95;0.85;;;22.00;37.40;;;25.88;24.26;102626.34;5061342;28;20131;-16
2022/05/09 01:05:45;;;;;;;3.25;1.00;;;22.00;37.40;;;25.89;24.38;102620.06;5095835;28;20206;-16
2022/05/09 01:08:11;;;;;;;0.70;0.70;;;22.00;37.50;;;25.95;24.36;102632.28;5095515;28;20044;-16
2022/05/09 01:10:41;;;;;;;1.13;0.77;;;22.00;37.50;;;25.94;24.48;102640.34;5096013;28;20058;-16
2022/05/09 01:13:11;;;;;;;0.73;0.73;;;22.00;37.40;;;25.87;24.41;102616.56;5075445;28;20095;-16
2022/05/09 01:15:40;;;;;;;0.93;0.82;;;22.00;37.50;;;25.92;24.35;102631.53;5095531;28;20059;-16
2022/05/09 01:18:08;;;;;;;1.13;0.90;;;22.00;37.50;;;25.93;24.46;102633.25;5095397;28;20495;-16
2022/05/09 01:20:35;;;;;;;1.90;0.82;;;22.00;37.50;;;25.88;24.40;102625.50;5077094;28;20507;-16
2022/05/09 01:23:03;;;;;;;1.20;0.95;;;22.00;37.50;;;25.86;24.34;102622.00;5095808;28;20052;-16
2022/05/09 01:25:29;;;;;;;1.38;0.90;;;22.00;37.50;;;25.90;24.44;102626.28;5095238;28;20487;-16
2022/05/09 01:27:56;;;;;;;1.25;0.75;;;22.00;37.50;;;25.85;24.39;102615.78;5095013;28;20056;-16
2022/05/09 01:30:44;;;;;;;2.88;1.02;;;22.00;37.50;;;25.90;24.40;102620.91;5074763;28;20051;-16
2022/05/09 01:33:21;;;;;;;1.33;0.77;;;22.00;37.50;;;25.86;24.46;102613.97;5077328;28;20139;-16
2022/05/09 01:35:55;;;;;;;1.63;0.90;;;22.00;37.50;;;25.82;24.44;102613.28;5076821;28;20048;-16
2022/05/09 01:38:27;;;;;;;1.02;0.90;;;22.00;37.50;;;25.89;24.39;102616.50;5076203;28;20194;-17
2022/05/09 01:40:53;;;;;;;1.17;0.90;;;22.00;37.50;;;25.82;24.42;102604.38;5077388;28;20425;-16
2022/05/09 01:43:44;;;;;;;1.35;0.80;;;22.00;37.50;;;25.81;24.43;102608.88;5094844;28;20040;-16
2022/05/09 01:46:17;;;;;;;1.48;0.85;;;22.00;37.50;;;25.84;24.40;102606.06;5095437;28;20052;-16
2022/05/09 01:51:28;;;;;;;1.05;0.75;;;22.00;37.50;;;25.82;24.22;102609.75;5095131;28;20464;-16
2022/05/09 01:53:58;;;;;;;1.35;0.70;;;22.00;37.50;;;25.82;24.29;102615.09;5095128;28;20126;-16
2022/05/09 01:56:29;;;;;;;1.08;0.90;;;22.00;37.50;;;25.83;24.40;102620.38;5094575;28;20052;-16
2022/05/09 01:58:56;;;;;;;0.95;0.85;;;22.00;38.00;;;25.87;24.46;102629.97;5094733;28;20142;-16
2022/05/09 02:01:26;;;;;;;0.80;0.80;;;22.00;37.50;;;25.85;24.43;102625.66;5094544;28;20063;-16
2022/05/09 02:03:52;;;;;;;1.33;0.95;;;22.00;37.40;;;25.87;24.36;102629.13;5076529;28;20048;-16
2022/05/09 02:06:19;;;;;;;1.02;0.85;;;22.00;37.50;;;25.85;24.37;102631.88;5094488;28;20050;-16
2022/05/09 02:08:46;;;;;;;1.15;0.70;;;22.00;37.50;;;25.80;24.26;102628.59;5094621;28;20403;-16
2022/05/09 02:11:11;;;;;;;1.40;0.80;;;22.00;37.50;;;25.85;24.34;102629.19;5094520;28;20124;-16
2022/05/09 02:13:38;;;;;;;1.17;1.00;;;22.00;37.50;;;25.88;24.45;102636.22;5094640;28;20048;-16
2022/05/09 02:16:04;;;;;;;1.17;0.90;;;21.90;37.50;;;25.80;24.38;102627.72;5094148;28;20047;-17
2022/05/09 02:18:35;;;;;;;0.85;0.73;;;21.90;37.50;;;25.83;24.50;102635.59;5094217;28;20165;-16
2022/05/09 02:21:02;;;;;;;1.60;1.00;;;21.90;37.50;;;25.85;24.43;102639.91;5094431;28;20048;-16
2022/05/09 02:23:27;;;;;;;1.35;0.98;;;21.90;37.50;;;25.79;24.39;102629.53;5094224;28;20549;-16
2022/05/09 02:25:53;;;;;;;0.95;0.90;;;21.90;37.50;;;25.80;24.42;102627.72;5094578;28;20048;-16
2022/05/09 02:28:23;;;;;;;0.88;0.82;;;21.90;37.50;;;25.82;24.41;102633.88;5094016;28;20130;-16
2022/05/09 02:30:49;;;;;;;2.03;1.10;;;21.90;38.00;;;25.82;24.42;102639.22;5076130;28;20123;-16
2022/05/09 02:33:15;;;;;;;1.58;0.82;;;21.90;37.50;;;25.81;24.43;102634.81;5094564;28;20089;-16
2022/05/09 02:35:46;;;;;;;;;;;21.90;37.50;;;25.96;24.21;102638.47;5073200;28;20143;-16
2022/05/09 02:38:12;;;;;;;1.65;0.90;;;21.90;37.50;;;25.84;24.27;102626.59;5093823;28;19924;-18
2022/05/09 02:40:40;;;;;;;0.93;0.80;;;22.00;37.50;;;25.86;24.26;102633.63;5093337;28;20056;-16
2022/05/09 02:43:06;;;;;;;1.00;0.90;;;21.90;37.50;;;25.85;24.52;102631.88;5093951;28;20403;-16
2022/05/09 02:45:33;;;;;;;1.35;1.20;;;22.00;37.50;;;25.80;24.43;102619.69;5094050;28;20052;-16
2022/05/09 02:47:59;;;;;;;1.20;0.98;;;22.00;37.50;;;25.84;24.43;102627.47;5093865;28;20109;-16
2022/05/09 02:50:26;;;;;;;1.17;0.88;;;21.90;37.50;;;25.77;24.36;102623.38;5093592;28;20064;-16
2022/05/09 02:52:53;;;;;;;0.93;0.80;;;21.90;38.00;;;25.80;24.41;102631.25;5094106;28;20044;-16
2022/05/09 02:55:21;;;;;;;1.38;1.00;;;21.90;37.50;;;25.82;24.50;102636.53;5093845;28;20134;-16
2022/05/09 02:57:47;;;;;;;2.35;0.93;;;21.90;37.50;;;25.78;24.47;102626.97;5094016;28;20054;-16
2022/05/09 03:00:21;;;;;;;1.60;0.90;;;21.90;37.50;;;25.72;24.37;102616.56;5094029;28;20505;-16
2022/05/09 03:05:33;;;;;;;1.20;0.90;;;21.90;37.50;;;25.80;24.35;102646.50;5093440;28;20546;-16
2022/05/09 03:07:59;;;;;;;1.17;0.80;;;21.90;37.50;;;25.74;24.43;102638.78;5093481;28;20044;-16
2022/05/09 03:10:28;;;;;;;1.40;0.95;;;21.90;37.50;;;25.70;24.49;102630.91;5093844;28;20043;-16
2022/05/09 03:13:01;;;;;;;0.88;0.80;;;21.90;37.60;;;25.70;24.50;102627.38;5074001;28;20040;-16
2022/05/09 03:15:34;;;;;;;1.00;0.90;;;21.80;37.50;;;25.73;24.47;102635.25;5093785;28;20044;-16
2022/05/09 03:18:00;;;;;;;2.10;0.95;;;21.90;37.50;;;25.74;24.44;102634.28;5093417;28;20051;-16
2022/05/09 03:20:26;;;;;;;1.25;1.05;;;21.90;37.50;;;25.72;24.52;102628.13;5093332;28;20044;-16
2022/05/09 03:22:51;;;;;;;2.38;1.05;;;21.90;37.50;;;25.76;24.52;102631.50;5093571;28;20051;-16
2022/05/09 03:25:17;;;;;;;1.58;1.13;;;21.90;37.50;;;25.67;24.45;102612.31;5093322;28;20048;-16
2022/05/09 03:27:44;;;;;;;0.80;0.80;;;21.90;37.50;;;25.78;24.47;102630.50;5093220;28;20081;-16
2022/05/09 03:30:12;;;;;;;1.23;0.90;;;21.90;37.50;;;25.70;24.43;102625.53;5093457;28;20039;-16
2022/05/09 03:32:39;;;;;;;1.65;0.80;;;21.90;37.50;;;25.74;24.42;102620.03;5093197;28;20047;-16
2022/05/09 03:35:09;;;;;;;1.10;1.00;;;21.90;37.40;;;25.74;24.39;102618.19;5093173;28;20044;-16
2022/05/09 03:37:35;;;;;;;1.58;1.00;;;21.90;37.40;;;25.80;24.29;102627.72;5093160;28;20047;-16
2022/05/09 03:40:02;;;;;;;1.60;1.00;;;21.90;37.40;;;25.80;24.46;102631.25;5092903;28;20051;-16
2022/05/09 03:42:28;;;;;;;1.30;1.00;;;21.90;37.40;;;25.80;24.35;102622.38;5093118;28;20137;-16
2022/05/09 03:44:53;;;;;;;1.10;0.80;;;21.90;37.40;;;25.78;24.29;102626.97;5093080;28;20052;-16
2022/05/09 03:47:19;;;;;;;1.50;0.95;;;21.90;37.30;;;25.80;24.38;102627.72;5092834;28;20392;-16
2022/05/09 03:49:45;;;;;;;1.40;0.80;;;21.90;37.30;;;25.77;24.29;102615.34;5093200;28;20384;-16
2022/05/09 03:52:12;;;;;;;2.15;1.15;;;21.90;37.30;;;25.83;24.28;102630.25;5091863;28;20396;-16
2022/05/09 03:54:41;;;;;;;0.98;0.90;;;21.90;37.30;;;25.77;24.32;102623.38;5092890;28;20052;-16
2022/05/09 03:57:10;;;;;;;1.55;0.85;;;21.90;37.30;;;25.80;24.33;102627.72;5093376;28;20048;-16
2022/05/09 03:59:36;;;;;;;1.00;0.90;;;22.00;37.30;;;25.80;24.25;102628.59;5092769;28;20051;-16
2022/05/09 04:02:01;;;;;;;1.13;1.00;;;22.00;37.30;;;25.85;24.31;102639.06;5092820;28;20048;-16
2022/05/09 04:04:27;;;;;;;0.90;0.90;;;22.00;37.30;;;25.84;24.25;102629.28;5093138;28;20044;-16
2022/05/09 04:06:53;;;;;;;1.52;1.08;;;22.00;37.20;;;25.76;24.18;102624.34;5093047;28;20052;-16
2022/05/09 04:09:20;;;;;;;1.50;1.00;;;22.00;37.70;;;25.85;24.32;102628.34;5073282;28;20049;-16
2022/05/09 04:11:47;;;;;;;1.05;0.90;;;22.10;37.20;;;25.87;24.40;102627.28;5074862;28;20055;-16
2022/05/09 04:14:14;;;;;;;1.75;1.00;;;22.10;37.20;;;25.87;24.36;102627.28;5093141;28;20044;-16
2022/05/09 04:16:50;;;;;;;0.95;0.82;;;22.10;37.10;;;25.92;24.27;102620.81;5092681;28;20113;-16
2022/05/09 04:19:18;;;;;;;1.35;0.93;;;22.10;37.00;;;25.96;24.32;102628.66;5092458;28;20572;-16
2022/05/09 04:21:45;;;;;;;1.35;0.93;;;22.20;37.00;;;25.97;24.14;102621.47;5092578;28;20040;-16
2022/05/09 04:24:11;;;;;;;1.63;1.10;;;22.20;37.00;;;26.03;24.21;102630.03;5092439;28;21412;-16
2022/05/09 04:26:37;;;;;;;0.98;0.80;;;22.20;37.00;;;26.00;24.17;102615.94;5092809;28;20051;-16
2022/05/09 04:29:03;;;;;;;1.35;0.93;;;22.30;37.00;;;26.07;24.11;102628.03;5092523;28;20056;-16
2022/05/09 04:31:29;;;;;;;1.42;0.90;;;22.30;36.90;;;26.04;24.21;102617.47;5092389;28;20047;-16
2022/05/09 04:33:55;;;;;;;1.20;1.00;;;22.30;36.90;;;26.16;24.22;102629.31;5092421;28;20036;-16
2022/05/09 04:36:22;;;;;;;1.75;0.90;;;22.30;36.90;;;26.15;24.12;102622.25;5092439;28;20192;-16
2022/05/09 04:38:50;;;;;;;1.13;0.70;;;22.40;36.90;;;26.24;24.18;102633.34;5092184;28;20476;-16
2022/05/09 04:41:18;;;;;;;1.02;0.90;;;22.40;36.80;;;26.24;23.98;102617.25;5092613;28;20076;-16
2022/05/09 04:43:44;;;;;;;0.82;0.68;;;22.50;36.70;;;26.29;23.99;102616.94;5092631;28;20048;-16
2022/05/09 04:46:11;;;;;;;1.23;0.90;;;22.50;36.60;;;26.35;24.04;102621.13;5092431;28;20052;-16
2022/05/09 04:48:40;;;;;;;0.93;0.80;;;22.60;36.60;;;26.36;23.85;102622.84;5091911;28;20044;-16
2022/05/09 04:51:06;;;;;;;1.40;0.90;;;22.60;36.50;;;26.43;23.75;102617.03;5092141;28;20039;-16
2022/05/09 04:53:32;;;;;;;1.10;1.00;;;22.60;36.50;;;26.43;23.88;102616.19;5092119;28;20101;-16
2022/05/09 04:55:59;;;;;;;0.82;0.82;;;22.70;36.40;;;26.53;23.92;102627.22;5092458;28;20039;-16
2022/05/09 04:58:25;;;;;;;0.80;0.73;;;22.70;36.40;;;26.54;23.65;102618.22;5072880;28;20041;-16
2022/05/09 05:00:51;;;;;;;0.93;0.80;;;22.70;36.30;;;26.62;23.56;102619.50;5092000;28;20412;-16
2022/05/09 05:03:19;;;;;;;1.42;0.95;;;22.80;36.30;;;26.66;23.74;102620.22;5093740;28;20059;-16
2022/05/09 05:05:49;;;;;;;0.90;0.80;;;22.80;36.20;;;26.70;23.67;102624.47;5096007;28;20051;-16
2022/05/09 05:08:15;;;;;;;0.98;0.85;;;22.90;36.20;;;26.69;23.60;102614.66;5095326;28;20101;-16
2022/05/09 05:10:41;;;;;;;1.20;0.98;;;22.90;36.10;;;26.77;23.60;102619.59;5095526;28;20044;-16
2022/05/09 05:13:08;;;;;;;1.23;0.77;;;23.00;36.10;;;26.80;23.55;102620.28;5095737;28;20059;-16
2022/05/09 05:15:34;;;;;;;1.25;0.90;;;22.90;36.00;;;26.79;23.37;102618.53;5095218;28;20040;-16
2022/05/09 05:18:00;;;;;;;1.30;0.98;;;23.00;36.00;;;26.83;23.44;102611.19;5095236;28;20109;-16
2022/05/09 05:20:26;;;;;;;0.70;0.70;;;23.00;36.00;;;26.91;23.34;102610.72;5095223;28;20557;-16
2022/05/09 05:22:52;;;;;;;2.00;1.00;;;23.10;36.00;;;26.93;23.28;102620.41;5095107;28;20044;-16
2022/05/09 05:25:26;;;;;;;0.77;0.77;;;23.10;35.90;;;26.98;23.44;102625.47;5095409;28;20060;-16
2022/05/09 05:27:53;;;;;;;1.05;0.80;;;23.20;35.90;;;27.01;23.23;102619.09;5095457;28;20048;-16
2022/05/09 05:30:18;;;;;;;1.25;1.00;;;23.20;35.80;;;27.09;23.32;102631.06;5095369;28;20070;-16
2022/05/09 05:32:46;;;;;;;1.35;0.88;;;23.30;35.70;;;27.12;23.25;102627.34;5094979;28;20492;-16
2022/05/09 05:35:16;;;;;;;2.35;1.40;;;23.30;35.60;;;27.17;23.11;102631.47;5095087;28;20055;-16
2022/05/09 05:37:42;;;;;;;1.00;0.80;;;23.40;35.70;;;27.22;23.25;102633.03;5095194;28;20048;-16
2022/05/09 05:40:09;;;;;;;0.90;0.70;;;23.40;35.60;;;27.25;23.17;102631.03;5094965;28;20316;-16
2022/05/09 05:42:43;;;;;;;0.95;0.70;;;23.40;35.50;;;27.28;23.15;102629.94;5094893;28;20048;-16
2022/05/09 05:45:11;;;;;;;0.98;0.75;;;23.40;35.40;;;27.32;22.87;102628.84;5095173;28;20052;-16
2022/05/09 05:47:37;;;;;;;2.30;1.10;;;23.40;35.40;;;27.32;23.02;102607.38;5095016;28;20048;-16
2022/05/09 05:50:05;;;;;;;1.90;0.70;;;23.50;35.30;;;27.37;22.65;102612.47;5094604;28;20050;-16
2022/05/09 05:52:31;;;;;;;0.85;0.80;;;23.50;35.20;;;27.40;22.90;102610.44;5094738;28;20048;-16
2022/05/09 05:54:57;;;;;;;1.90;0.80;;;23.60;35.20;;;27.44;22.78;102611.13;5094758;28;20043;-16
2022/05/09 05:57:26;;;;;;;1.05;0.95;;;23.60;35.20;;;27.48;22.64;102607.25;5094623;28;20448;-16
2022/05/09 05:59:56;;;;;;;1.10;1.00;;;23.60;35.20;;;27.44;22.67;102601.22;5094899;28;20060;-16
2022/05/09 06:02:23;;;;;;;1.45;0.93;;;23.60;35.10;;;27.56;22.51;102614.84;5094826;28;20082;-16
2022/05/09 06:04:49;;;;;;;1.15;0.90;;;23.60;35.10;;;27.64;22.66;102623.31;5094776;28;20055;-16
2022/05/09 06:07:17;;;;;;;1.55;0.90;;;23.70;35.00;;;27.68;22.72;102624.81;5094673;28;20373;-17
2022/05/09 06:09:45;;;;;;;1.00;0.90;;;23.80;35.00;;;27.70;22.51;102621.09;5094263;28;20483;-17
2022/05/09 06:12:15;;;;;;;1.55;0.98;;;23.80;35.00;;;27.68;22.76;102614.94;5094442;28;20090;-17
2022/05/09 06:14:41;;;;;;;1.92;1.13;;;23.80;34.90;;;27.77;22.45;102621.56;5093008;28;20041;-16
2022/05/09 06:17:09;;;;;;;1.13;0.90;;;23.80;34.90;;;27.80;22.34;102624.06;5093498;28;20052;-16
2022/05/09 06:19:36;;;;;;;0.88;0.88;;;23.80;34.90;;;27.84;22.24;102630.09;5093707;28;20059;-16
2022/05/09 06:22:03;;;;;;;1.05;0.90;;;23.80;34.80;;;27.81;22.60;102624.91;5093834;28;20502;-17
2022/05/09 06:24:29;;;;;;;1.67;0.90;;;23.90;34.90;;;27.88;22.44;102627.13;5093908;28;20140;-17
2022/05/09 06:26:55;;;;;;;1.23;0.80;;;23.90;34.80;;;27.90;22.19;102622.50;5093838;28;20168;-17
2022/05/09 06:29:21;;;;;;;1.10;0.90;;;23.90;35.00;;;27.92;22.46;102630.47;5092970;28;20056;-17
2022/05/09 06:31:47;;;;;;;1.98;0.90;;;23.90;34.70;;;27.90;22.44;102616.28;5093975;28;20044;-17
2022/05/09 06:34:13;;;;;;;1.20;0.80;;;24.00;34.70;;;27.99;22.08;102626.44;5092123;28;20062;-16
2022/05/09 06:36:44;;;;;;;2.28;0.90;;;24.00;34.70;;;27.94;22.37;102612.44;5093485;28;20047;-16
2022/05/09 06:39:10;;;;;;;1.50;0.77;;;24.00;34.70;;;28.02;22.08;102617.34;5092809;28;20060;-17
2022/05/09 06:41:36;;;;;;;1.70;1.05;;;24.10;34.70;;;28.04;22.12;102613.56;5093721;28;20399;-16
2022/05/09 06:44:02;;;;;;;2.08;1.00;;;24.10;34.60;;;28.06;21.98;102618.84;5093312;28;20059;-17
2022/05/09 06:46:28;;;;;;;1.17;1.00;;;24.10;34.60;;;28.09;21.88;102611.44;5093639;28;20395;-17
2022/05/09 06:48:54;;;;;;;2.05;0.80;;;24.10;34.50;;;28.15;22.12;102617.38;5093123;28;20052;-16
2022/05/09 06:51:20;;;;;;;1.10;0.77;;;24.20;34.50;;;28.19;21.82;102619.78;5093035;28;20514;-16
2022/05/09 06:53:46;;;;;;;1.52;0.88;;;24.20;34.50;;;28.17;22.12;102602.03;5091342;28;20389;-16
2022/05/09 06:56:12;;;;;;;1.42;1.00;;;24.20;34.40;;;28.21;21.81;102607.09;5074815;28;20395;-16
2022/05/09 06:58:38;;;;;;;2.95;1.20;;;24.20;34.40;;;28.22;21.97;102607.97;5093166;28;20044;-16
2022/05/09 07:01:16;;;;;;;0.73;0.73;;;24.20;34.30;;;28.26;22.13;102620.22;5092112;28;20047;-16
2022/05/09 07:03:43;;;;;;;1.50;1.00;;;24.20;34.20;;;28.28;22.03;102613.81;5073874;28;20044;-17
2022/05/09 07:06:09;;;;;;;1.35;1.00;;;24.30;34.30;;;28.28;21.78;102602.16;5093011;28;20097;-16
2022/05/09 07:08:36;;;;;;;1.35;0.85;;;24.30;34.20;;;28.37;22.09;102616.84;5093288;28;20458;-17
2022/05/09 07:11:03;;;;;;;1.02;0.80;;;24.30;34.20;;;28.26;21.76;102596.88;5093772;28;20479;-17
2022/05/09 07:13:29;;;;;;;2.15;0.85;;;24.30;34.20;;;28.38;21.76;102605.09;5093094;28;20044;-17
2022/05/09 07:15:57;;;;;;;2.05;1.20;;;24.30;34.10;;;28.41;21.63;102605.75;5093707;28;20139;-16
2022/05/09 07:18:27;;;;;;;2.53;1.15;;;24.40;34.20;;;28.42;21.88;102618.25;5092967;28;20090;-16
2022/05/09 07:20:53;;;;;;;2.23;0.90;;;24.40;34.10;;;28.47;21.72;102615.28;5093227;28;20052;-16
2022/05/09 07:23:19;;;;;;;1.00;0.90;;;24.40;34.10;;;28.50;21.61;102616.88;5092960;28;20055;-16
2022/05/09 07:25:45;;;;;;;0.93;0.90;;;24.40;34.10;;;28.49;21.36;102605.25;5093111;28;20052;-16
2022/05/09 07:28:12;;;;;;;2.05;0.90;;;24.40;34.00;;;28.51;21.68;102607.84;5091542;28;20055;-16
2022/05/09 07:30:38;;;;;;;2.35;0.98;;;24.40;34.00;;;28.50;21.47;102607.00;5092669;28;20097;-16
2022/05/09 07:33:04;;;;;;;0.90;0.80;;;24.40;34.00;;;28.51;21.60;102603.31;5092842;28;20071;-16
2022/05/09 07:35:32;;;;;;;2.10;1.10;;;24.40;34.00;;;28.53;21.51;102605.91;5092795;28;20040;-16
2022/05/09 07:37:58;;;;;;;1.33;1.20;;;24.40;33.90;;;28.50;21.50;102598.03;5092656;28;20048;-16
2022/05/09 07:40:24;;;;;;;2.15;1.10;;;24.40;33.90;;;28.46;21.58;102598.25;5074485;28;20046;-16
2022/05/09 07:42:49;;;;;;;1.33;0.80;;;24.40;33.90;;;28.57;21.59;102612.88;5092910;28;20488;-16
2022/05/09 07:45:19;;;;;;;1.38;1.10;;;24.50;34.00;;;28.56;21.59;102603.06;5092959;28;20079;-16
2022/05/09 07:47:46;;;;;;;1.58;0.90;;;24.50;33.90;;;28.57;21.28;102600.25;5056745;28;20049;-16
2022/05/09 07:50:14;;;;;;;1.13;0.80;;;24.50;34.00;;;28.57;21.54;102608.34;5092894;28;20109;-16
2022/05/09 07:52:42;;;;;;;1.63;0.90;;;24.50;33.90;;;28.59;21.25;102600.16;5092502;28;20055;-16
2022/05/09 07:55:15;;;;;;;1.77;1.13;;;24.50;33.90;;;28.63;21.40;102602.56;5092266;28;20070;-16
2022/05/09 07:57:41;;;;;;;1.63;0.95;;;24.50;33.80;;;28.66;21.24;102597.91;5073736;28;20048;-17
2022/05/09 08:00:10;;;;;;;1.52;1.00;;;24.50;33.80;;;28.62;21.31;102606.19;5092505;28;20475;-16
2022/05/09 08:02:40;;;;;;;1.35;0.90;;;24.50;33.80;;;28.61;21.45;102595.53;5092922;28;20523;-16
2022/05/09 08:05:10;;;;;;;1.00;1.00;;;24.50;33.80;;;28.61;21.48;102591.00;5093015;28;20059;-16
2022/05/09 08:07:38;;;;;;;1.23;1.08;;;24.50;33.80;;;28.66;21.22;102587.16;5093116;28;20047;-16
2022/05/09 08:10:06;;;;;;;1.55;0.93;;;24.50;33.80;;;28.65;21.32;102588.97;5092515;28;20101;-17
2022/05/09 08:12:31;;;;;;;1.90;1.13;;;24.50;33.80;;;28.57;21.35;102578.72;5092506;28;20131;-16
2022/05/09 08:14:57;;;;;;;1.95;1.10;;;24.50;33.90;;;28.59;21.45;102576.78;5074211;28;20167;-16
2022/05/09 08:17:25;;;;;;;1.50;0.95;;;24.40;33.80;;;28.60;21.26;102585.72;5091774;28;20056;-16
2022/05/09 08:19:55;;;;;;;1.40;1.05;;;24.40;33.90;;;28.57;21.27;102584.13;5092243;28;20056;-16
2022/05/09 08:22:22;;;;;;;2.50;1.27;;;24.40;33.90;;;28.57;21.46;102580.56;5092162;28;20090;-16
2022/05/09 08:24:48;;;;;;;1.60;0.90;;;24.40;33.90;;;28.53;21.33;102574.47;5092170;28;20070;-17
2022/05/09 08:27:14;;;;;;;1.20;0.90;;;24.40;33.90;;;28.46;21.51;102562.41;5092146;28;20052;-16
2022/05/09 08:29:40;;;;;;;2.50;1.00;;;24.30;33.90;;;28.44;21.69;102575.97;5073918;28;20134;-16
2022/05/09 08:32:06;;;;;;;4.05;1.20;;;24.30;34.10;;;28.43;21.51;102587.72;5091967;28;20441;-17
2022/05/09 08:34:34;;;;;;;1.80;1.20;;;24.20;34.10;;;28.40;21.69;102574.47;5092175;28;20040;-17
2022/05/09 08:37:00;;;;;;;2.42;1.00;;;24.20;34.10;;;28.36;21.46;102575.63;5092067;28;20141;-17
2022/05/09 08:39:27;;;;;;;4.97;1.00;;;24.20;34.40;;;28.37;21.52;102571.13;5095303;28;20519;-17
2022/05/09 08:42:04;;;;;;;4.22;1.10;;;24.20;34.30;;;28.26;21.50;102563.75;5095240;28;20044;-18
2022/05/09 08:45:12;;;;;;;5.00;1.38;;;24.20;34.10;;;28.40;21.64;102574.47;5095336;28;20060;-18
2022/05/09 08:48:01;;;;;;;3.47;1.23;;;24.30;34.00;;;28.36;21.70;102566.69;5095025;28;20044;-17
2022/05/09 08:51:08;;;;;;;5.03;1.33;;;24.30;34.00;;;28.37;21.73;102563.06;5095571;28;20044;-18
2022/05/09 08:53:39;;;;;;;3.50;1.40;;;24.30;34.10;;;28.25;21.53;102556.63;5095493;28;20468;-17
2022/05/09 08:56:12;;;;;;;3.70;1.30;;;24.20;34.00;;;28.24;21.46;102560.31;5095340;28;20051;-16
2022/05/09 08:58:56;;;;;;;2.70;1.15;;;24.20;34.10;;;28.29;21.67;102563.56;5077254;28;20044;-16
2022/05/09 09:01:50;;;;;;;4.10;1.08;;;24.20;33.90;;;28.21;21.64;102552.44;5060770;28;20044;-17
2022/05/09 09:04:24;;;;;;;3.55;1.52;;;24.20;34.10;;;28.27;21.78;102568.19;5076146;28;20481;-17
2022/05/09 09:07:36;;;;;;;2.90;1.38;;;24.20;34.10;;;28.23;21.77;102553.19;5060166;28;20139;-17
2022/05/09 09:10:23;;;;;;;2.72;1.40;;;24.20;34.10;;;28.23;21.47;102555.88;5077303;28;20048;-17
2022/05/09 09:13:53;;;;;;;1.95;1.10;;;24.20;34.00;;;28.23;21.81;102563.94;5075005;28;20064;-18
2022/05/09 09:16:56;;;;;;;2.72;1.58;;;24.20;34.10;;;28.19;21.72;102562.44;5078088;28;20052;-24
2022/05/09 09:20:03;;;;;;;4.03;1.38;;;24.10;34.20;;;28.07;21.79;102551.53;5092839;28;20044;-17
2022/05/09 09:23:14;;;;;;;3.13;1.48;;;24.10;34.30;;;28.07;21.93;102556.91;5073269;28;20048;-17
2022/05/09 09:26:02;;;;;;;2.80;1.67;;;24.00;34.30;;;27.98;22.00;102545.88;5093765;28;20052;-20
2022/05/09 09:28:46;;;;;;;4.03;1.70;;;23.90;34.40;;;27.99;21.66;102559.22;5093603;28;20056;-19
2022/05/09 09:31:18;;;;;;;4.07;1.35;;;23.90;34.40;;;27.90;21.96;102543.69;5077178;28;20071;-18
2022/05/09 09:33:57;;;;;;;4.38;1.30;;;23.90;34.50;;;27.90;22.08;102541.00;5073099;28;20054;-17
2022/05/09 09:36:33;;;;;;;3.63;1.40;;;23.80;34.40;;;27.88;21.97;102540.22;5076874;28;20135;-19
2022/05/09 09:39:17;;;;;;;2.40;1.25;;;23.80;34.50;;;27.85;21.83;102543.97;5074955;28;20044;-17
2022/05/09 09:41:43;;;;;;;2.85;1.55;;;23.80;34.50;;;27.83;22.08;102526.22;5094717;28;20044;-18
2022/05/09 09:44:13;;;;;;;2.28;1.23;;;23.80;34.50;;;27.83;22.07;102539.66;5094560;28;20066;-17
2022/05/09 09:47:20;;;;;;;3.45;1.58;;;23.70;34.50;;;27.81;22.06;102541.59;5094626;28;20071;-17
2022/05/09 09:50:12;;;;;;;2.65;1.30;;;23.70;34.50;;;27.75;21.85;102540.19;5093006;28;20051;-18
2022/05/09 09:52:59;;;;;;;3.45;1.20;;;23.70;34.60;;;27.68;22.14;102526.28;5077063;28;20083;-17
2022/05/09 09:55:36;;;;;;;2.67;1.30;;;23.70;34.50;;;27.70;22.25;102532.41;5094683;28;20486;-18
2022/05/09 09:58:25;;;;;;;3.47;1.33;;;23.70;34.50;;;27.69;22.11;102525.28;5076507;28;20044;-17
2022/05/09 10:01:25;;;;;;;3.67;1.42;;;23.70;34.50;;;27.69;21.88;102535.19;5094115;28;20499;-17
2022/05/09 10:04:13;;;;;;;3.25;1.48;;;23.60;34.40;;;27.64;21.90;102526.56;5094397;28;20101;-17
2022/05/09 10:07:30;;;;;;;3.13;1.48;;;23.70;34.40;;;27.65;21.86;102521.09;5094442;28;20098;-16
2022/05/09 10:10:18;;;;;;;4.43;1.60;;;23.60;34.40;;;27.59;22.06;102510.72;4991987;28;20070;-17
2022/05/09 10:12:48;;;;;;;8.23;1.67;;;23.60;34.30;;;27.60;21.75;102516.94;4992686;28;20197;-17
2022/05/09 10:15:36;;;;;;;4.43;1.40;;;23.60;34.30;;;27.55;22.09;102506.53;5067366;28;20047;-17
2022/05/09 10:18:23;;;;;;;4.88;1.73;;;23.60;34.30;;;27.50;21.87;102498.75;5094187;28;20040;-17
2022/05/09 10:20:51;;;;;;;3.25;1.35;;;23.60;34.20;;;27.57;22.10;102503.75;5094124;28;20484;-18
2022/05/09 10:26:25;;;;;;;3.15;1.35;;;23.60;34.10;;;27.53;21.76;102484.25;5078858;28;20032;-16
2022/05/09 10:28:55;;;;;;;2.05;1.30;;;23.60;34.10;;;27.55;21.78;102498.47;5059194;28;20109;-17
2022/05/09 10:31:34;;;;;;;2.70;1.50;;;23.60;34.10;;;27.53;22.05;102490.50;5094089;28;20048;-17
2022/05/09 10:34:12;;;;;;;5.28;1.45;;;23.60;34.10;;;27.52;21.74;102487.91;5075441;28;20049;-16
2022/05/09 10:36:54;;;;;;;3.17;1.40;;;23.60;34.20;;;27.47;21.97;102490.03;5094084;28;20044;-17